Aérodrome :
LOGIN :

S'inscrire | Disclaimer

   EN    FR    IT 

 










Légende :    VFR   VFR Marginal   IFR   IFR Intensif   IFR Très Intensif
Visi : 
Plafond : 
>= 8 km
>= 3000ft
5 à 8 km
1000 à 3000 ft
1500m à 5 km
500 à 1000 ft
800 à 1500m
200 à 500 ft
< 800m
< 200 ft
Symboles :   Orages  Brouillard  Fortes neiges  Fortes précipitations  Vent > 20 kt
SIGMETs :   Divers  Orages  Givrage  Turbulence  Onde Orograph.  Cendres Volcan.






- Altitude de l'aérodrome : 1299 ft


EDTY - Adolf Würth

DERNIER METAR :
  • 131920Z AUTO VRB01KT 9999 // FEW002/// OVC086/// 19/18 Q1016

METARs EXPIRÉS :
  • 131850Z AUTO 07005KT 9999 // FEW003/// BKN087/// OVC100/// 19/18 Q1015
  • 131820Z AUTO VRB02KT 9999 // FEW003/// OVC090/// 19/18 Q1015
  • 131750Z 21005KT 160V260 9999 FEW049 20/18 Q1015
  • 131720Z 21004KT 110V240 CAVOK 19/18 Q1015
  • 131650Z VRB02KT CAVOK 20/18 Q1015
  • 131620Z 10003KT 070V130 9999 -RA NSC 20/18 Q1016

TAF TAF EDTY
Valide du 13 à 18h jusqu'au 14 à 03h UTC


131700Z 1318/1403 VRB03KT CAVOK
PROB30
TEMPO 1322/1403 09010KT SHRA SCT040CB



MET'MAP, la Météo Aéronautique d'un coup d'oeil ! - Copyright ORBIFLY Décembre 2007 - Disclaimer

ORBIFLY MET'MAP TEAM :

Programmation & Développement : Alexandra Zaïnal
Sur une idée originale de : Baudouin d'Aumeries
Assistance à la programmation : Marc-Olivier Méhu
Soutien technique & logistique : Manuel Goepfert

Contact : metmap@orbifly.com




SOURCES & CREDITS :

   NOAA